createdAt,value
2023-03-15T00:12:29.261Z,11718.42712
2023-03-15T00:27:31.501Z,8823.07145
2023-03-15T00:42:33.722Z,6513.23408
2023-03-15T00:57:35.948Z,4969.27182
2023-03-15T01:12:38.190Z,4435.73719
2023-03-15T01:27:40.435Z,4960.56144
2023-03-15T01:42:42.773Z,5426.65442
2023-03-15T01:57:45.067Z,4327.21763
2023-03-15T02:12:47.292Z,2864.373
2023-03-15T02:27:49.575Z,2847.08302
2023-03-15T02:42:51.907Z,2750.24348
2023-03-15T02:57:54.204Z,3176.207
2023-03-15T03:12:56.503Z,2486.81949
2023-03-15T03:27:58.794Z,2313.98252
2023-03-15T03:43:01.096Z,2380.1519
2023-03-15T03:58:03.305Z,2454.46712
2023-03-15T04:13:05.573Z,2124.62513
2023-03-15T04:28:07.865Z,2319.67264
2023-03-15T04:43:10.130Z,2134.23881
2023-03-15T04:58:12.460Z,2223.09556
2023-03-15T05:13:14.822Z,2427.10171
2023-03-15T05:28:17.073Z,2572.72779
2023-03-15T05:43:19.521Z,2251.39271
2023-03-15T05:58:21.855Z,2207.4888
2023-03-15T06:13:24.121Z,2327.30314
2023-03-15T06:28:26.422Z,2180.27785
2023-03-15T06:43:28.710Z,2088.56139
2023-03-15T06:58:30.971Z,1874.17268
2023-03-15T07:13:33.191Z,1670.60262
2023-03-15T07:28:35.791Z,1537.20853
2023-03-15T07:43:38.057Z,1604.30888
2023-03-15T07:58:40.313Z,1927.79341
2023-03-15T08:13:42.536Z,2005.67024
2023-03-15T08:28:44.938Z,1895.51289
2023-03-15T08:43:47.213Z,1921.24965
2023-03-15T08:58:49.468Z,2061.1804
2023-03-15T09:13:51.705Z,2028.67434
2023-03-15T09:28:53.940Z,2102.52651
2023-03-15T09:43:56.203Z,2047.75738
2023-03-15T09:58:58.630Z,1917.34467
2023-03-15T10:14:00.853Z,1926.4811
2023-03-15T10:29:03.068Z,2080.88285
2023-03-15T10:44:05.520Z,1769.85666
2023-03-15T10:59:12.716Z,1615.2973
2023-03-15T11:14:15.326Z,1420.68324
2023-03-15T11:29:17.533Z,1460.26883
2023-03-15T11:44:19.900Z,1420.68324
2023-03-15T11:59:22.141Z,1368.47246
2023-03-15T12:14:24.401Z,1328.63901
2023-03-15T12:29:26.618Z,1153.21974
2023-03-15T12:44:29.013Z,1088.46204
2023-03-15T12:59:31.251Z,988.81951
2023-03-15T13:14:33.538Z,874.53696
2023-03-15T13:29:35.735Z,677.65458
2023-03-15T13:44:37.955Z,698.41276
2023-03-15T13:59:40.973Z,776.6196
2023-03-15T14:14:43.270Z,694.97907
2023-03-15T14:29:45.532Z,725.66088
2023-03-15T14:44:47.844Z,777.47302
2023-03-15T14:59:50.066Z,786.54858
2023-03-15T15:14:52.303Z,823.63263
2023-03-15T15:29:54.557Z,887.70439
2023-03-15T15:44:56.789Z,932.14806
2023-03-15T15:59:59.021Z,1148.53946
2023-03-15T16:15:01.471Z,1582.77454
2023-03-15T16:30:03.674Z,2219.60835
2023-03-15T16:45:05.941Z,2679.92476
2023-03-15T17:00:08.174Z,3116.74057
2023-03-15T17:15:10.463Z,3768.30942
2023-03-15T17:30:12.985Z,4340.49131
2023-03-15T17:45:15.435Z,4597.88841
2023-03-15T18:00:17.720Z,5231.05414
2023-03-15T18:15:19.934Z,5722.95303
2023-03-15T18:30:22.212Z,6391.86947
2023-03-15T18:45:24.744Z,6662.74327
2023-03-15T19:00:27.106Z,6881.45945
2023-03-15T19:15:29.378Z,7035.42621
2023-03-15T19:30:31.694Z,6520.7378
2023-03-15T19:45:33.983Z,6324.02282
2023-03-15T20:00:36.385Z,5787.32162
2023-03-15T20:15:38.757Z,6261.06242
2023-03-15T20:30:43.241Z,5603.96094
2023-03-15T20:45:46.538Z,5757.88458
2023-03-15T21:00:48.956Z,5265.11681
2023-03-15T21:15:51.245Z,7088.29103
2023-03-15T21:30:53.534Z,8311.30741
2023-03-15T21:45:56.017Z,9609.50818
2023-03-15T22:00:58.451Z,10791.23032
2023-03-15T22:16:00.804Z,10863.72419
2023-03-15T22:31:03.119Z,11457.49049
2023-03-15T22:46:05.464Z,11598.36127
2023-03-15T23:01:07.866Z,12535.99179
2023-03-15T23:16:10.174Z,12535.99179
2023-03-15T23:31:12.516Z,10000.00055
2023-03-15T23:46:14.867Z,9449.08234
